Tiempo atmosférico en la estación meteorológica de Santillana del Mar, Altamira, Cantabria (150 m.)



Fecha
DESCASC
Temp. máxima en grados centígrados (hora)
DESCASC
Temp. mínima en grados centígrados (hora)
DESCASC
Temp. media en grados centígrados
DESCASC
Racha de viento máxima en m/sg (hora)
DESCASC
Velocidad máxima media en intervalos de 10 minutos(hora)
DESCASC
Precipitaciones diarias en mm
DESCASC
Precipitaciones de 00:00 a 06:00 en mm
DESCASC
Precipitaciones de 06:00 a 12:00 en mm
DESCASC
Precipitaciones de 12:00 a 18:00 en mm
DESCASC
Precipitaciones de 18:00 a 24:00 en mm
DESCASC
07-05-2019 20.9 (13:30) 9.2 (00:00) 15 6.11 (19:40) 3.89 (19:40) 0 0 0 0 0
20-05-2019 16.2 (15:20) 7.1 (07:30) 11.7 6.39 (16:10) 4.17 (14:20) 0 0 0 0 0
22-05-2019 22.6 (14:20) 7.6 (06:40) 15.1 6.39 (15:50) 3.61 (15:50) 0 0 0 0 0
30-04-2019 17.6 (17:20) 6.6 (00:00) 12.1 6.67 (14:50) 4.17 (15:20) 0 0 0 0 0
15-05-2019 21.4 (13:00) 8 (00:00) 14.7 7.22 (16:20) 3.89 (14:30) 0 0 0 0 0
29-04-2019 17.6 (13:50) 7.1 (00:00) 12.4 7.22 (13:20) 3.89 (14:50) 0 0 0 0 0
02-05-2019 15.2 (16:50) 8.1 (04:00) 11.7 7.5 (13:50) 5.28 (17:00) 0 0 0 0 0
27-04-2019 13.9 (15:10) 8.8 (00:00) 11.3 7.78 (14:20) 4.44 (14:20) 0.6 0 0 0.6 0
06-05-2019 19.4 (15:00) 4.7 (00:00) 12 7.78 (18:10) 4.17 (18:30) 0 0 0 0 0
09-05-2019 17.3 (12:10) 8.2 (00:00) 12.7 8.06 (15:20) 4.17 (15:00) 7.8 0 0 1.6 6.2
21-05-2019 17.8 (13:50) 7.8 (06:10) 12.8 8.33 (15:40) 5 (16:00) 0 0 0 0 0
14-05-2019 20 (12:50) 6.8 (00:00) 13.4 8.33 (16:10) 4.72 (15:00) 0 0 0 0 0
03-05-2019 13.7 (17:10) 8.6 (00:00) 11.2 8.61 (15:10) 4.72 (15:20) 3.2 0 3.2 0 0
01-05-2019 15.8 (12:30) 8.2 (00:00) 12 8.61 (17:50) 4.44 (15:10) 0 0 0 0 0
11-05-2019 16.3 (17:30) 10.2 (00:00) 13.2 8.89 (11:00) 4.72 (13:50) 1.4 1.4 0 0 0
28-04-2019 15.8 (14:30) 8.5 (00:00) 12.2 9.44 (15:10) 4.72 (15:00) 0 0 0 0 0
16-05-2019 15.5 (14:30) 10.8 (00:00) 13.2 9.44 (12:20) 4.17 (21:30) 11.6 0 0 1 10.6
04-05-2019 15.3 (12:00) 5 (00:00) 10.2 9.72 (16:10) 5.28 (14:20) 0 0 0 0 0
10-05-2019 19.8 (17:30) 12.4 (00:00) 16.1 10 (22:10) 5.56 (14:20) 1.2 0.4 0 0 0.8
13-05-2019 18.5 (14:00) 8 (00:00) 13.3 10.28 (16:50) 5.83 (16:50) 0 0 0 0 0
12-05-2019 18.1 (15:50) 6.8 (00:00) 12.5 10.56 (16:20) 5.56 (18:40) 0 0 0 0 0
23-05-2019 18.7 (13:40) 13.2 (02:00) 16 10.56 (08:20) 5.56 (15:40) 0 0 0 0 0
18-05-2019 13.1 (17:00) 8.3 (00:00) 10.7 11.11 (22:50) 4.44 (17:30) 8.6 0 8 0.6 0
19-05-2019 15.2 (15:20) 10.2 (00:00) 12.7 11.39 (11:40) 6.11 (16:00) 1.8 1.4 0.4 0 0
05-05-2019 14.1 (14:10) 6.4 (00:00) 10.3 11.39 (15:50) 5.83 (17:00) 0 0 0 0 0
26-04-2019 14.5 (12:50) 8.4 (00:00) 11.4 11.67 (13:30) 6.94 (13:30) 1.4 1.2 0.2 0 0
08-05-2019 18.3 (14:00) 12.2 (00:00) 15.2 13.61 (06:20) 8.33 (06:30) 0 0 0 0 0
17-05-2019 14.5 (15:30) 9 (00:00) 11.8 16.67 (06:10) 7.5 (06:10) 19 4.2 9.4 4.4 1

Gráficas

Temp. máximas Temp. mínimas Temp. medias Precipitaciones Rachas de viento máximas Velocidades máximas media en intervalos de 10 minutos

Datos horarios

Fecha y hora oficial Temperatura (ºC) Velocidad del viento (km/h) Dirección del viento Racha (km/h) Dirección de racha Precipitación (mm) Presión (hPa) Tendencia (hPa) Humedad (%)
2019-05-25 23:00:00 13 2 Oeste 9 Noroeste 0 -- -- 88
2019-05-25 22:00:00 13.1 4 Noroeste 10 Noroeste 0 -- -- 87
2019-05-25 21:00:00 13.8 5 Noroeste 11 Noroeste 0 -- -- 84
2019-05-25 20:00:00 14.7 5 Noroeste 18 Noroeste 0 -- -- 81
2019-05-25 19:00:00 15.3 9 Noroeste 21 Norte 0 -- -- 78
2019-05-25 18:00:00 15.5 10 Norte 20 Norte 0 -- -- 80
2019-05-25 17:00:00 15.6 9 Noroeste 23 Norte 0 -- -- 80
2019-05-25 16:00:00 16.2 11 Norte 22 Noroeste 0 -- -- 78
2019-05-25 15:00:00 16.1 13 Noroeste 27 Norte 0 -- -- 80
2019-05-25 14:00:00 15.8 13 Noroeste 28 Norte 0 -- -- 87
2019-05-25 13:00:00 14.7 10 Noroeste 24 Noroeste 0 -- -- 91
2019-05-25 12:00:00 14.6 9 Noroeste 21 Noroeste 0 -- -- 93
2019-05-25 11:00:00 13.9 8 Noroeste 27 Noroeste 0.2 -- -- 98
2019-05-25 10:00:00 14 10 Noroeste 29 Norte 0 -- -- 98
2019-05-25 09:00:00 12.8 9 Noroeste 23 Noroeste 2.4 -- -- 96
2019-05-25 08:00:00 13 8 Noroeste 28 Oeste 0 -- -- 97
2019-05-25 07:00:00 12.7 9 Oeste 21 Noroeste 0 -- -- 96
2019-05-25 06:00:00 12.9 8 Noroeste 18 Noroeste 0 -- -- 96
2019-05-25 05:00:00 12.9 8 Noroeste 21 Noroeste 0 -- -- 94
2019-05-25 04:00:00 12.7 5 Noroeste 13 Noroeste 0 -- -- 94
2019-05-25 03:00:00 12.8 5 Noroeste 15 Noroeste 0 -- -- 96
2019-05-25 02:00:00 12.8 9 Noroeste 21 Noroeste 0 -- -- 96
2019-05-25 01:00:00 12.9 4 Oeste 17 Noroeste 0 -- -- 96
2019-05-25 00:00:00 13.1 8 Noroeste 22 Oeste 0 -- -- 97
2019-05-24 23:00:00 13 5 Oeste 19 Oeste 0 -- -- 96
2019-05-24 22:00:00 13.2 7 Noroeste 19 Noroeste 0 -- -- 94
2019-05-24 21:00:00 13.6 9 Noroeste 19 Oeste 0 -- -- 91
2019-05-24 20:00:00 14.4 8 Oeste 22 Oeste 0 -- -- 87
2019-05-24 19:00:00 14.3 9 Noroeste 25 Norte 0 -- -- 87
2019-05-24 18:00:00 14.5 11 Noroeste 26 Noroeste 0 -- -- 89
2019-05-24 17:00:00 15 17 Noroeste 31 Noroeste 0 -- -- 83
2019-05-24 16:00:00 14.4 11 Noroeste 29 Norte 0 -- -- 87
2019-05-24 15:00:00 14.4 13 Noroeste 26 Noroeste 0 -- -- 84
2019-05-24 14:00:00 14.5 8 Noroeste 25 Noroeste 0 -- -- 82
2019-05-24 13:00:00 15 12 Noroeste 32 Oeste 0 -- -- 79
2019-05-24 12:00:00 14.5 11 Noroeste 35 Noroeste 0 -- -- 85
2019-05-24 11:00:00 15.1 14 Noroeste 34 Noroeste 0 -- -- 80
2019-05-24 10:00:00 13.7 13 Noroeste 33 Noroeste 0 -- -- 83
2019-05-24 09:00:00 13.2 12 Noroeste 27 Noroeste 0 -- -- 85
2019-05-24 08:00:00 12.8 12 Noroeste 30 Oeste 0 -- -- 90
2019-05-24 07:00:00 12.5 7 Noroeste 22 Oeste 0 -- -- 88
2019-05-24 06:00:00 12.4 8 Oeste 21 Oeste 0 -- -- 85
2019-05-24 05:00:00 12.4 9 Oeste 26 Noroeste 0 -- -- 86
2019-05-24 04:00:00 12.2 12 Noroeste 30 Oeste 0 -- -- 90
2019-05-24 03:00:00 12.6 10 Noroeste 31 Noroeste 0 -- -- 88
2019-05-24 02:00:00 13 12 Noroeste 24 Oeste 0 -- -- 89
2019-05-24 01:00:00 13.1 8 Oeste 24 Oeste 0 -- -- 92
2019-05-24 00:00:00 13.3 4 Oeste 18 Oeste 0 -- -- 93
2019-05-23 23:00:00 13.4 7 Oeste 26 Noroeste 0 -- -- 93
2019-05-23 22:00:00 13.5 13 Noroeste 29 Noroeste 0 -- -- 92
2019-05-23 21:00:00 13.8 10 Oeste 28 Noroeste 0 -- -- 91
2019-05-23 20:00:00 14.4 7 Noroeste 23 Noroeste 0 -- -- 91
2019-05-23 19:00:00 15.2 9 Noroeste 27 Norte 0 -- -- 86
2019-05-23 18:00:00 16 14 Noroeste 30 Noroeste 0 -- -- 85
2019-05-23 17:00:00 16.3 18 Noroeste 30 Noroeste 0 -- -- 82
2019-05-23 16:00:00 16.4 14 Noroeste 33 Noroeste 0 -- -- 83
2019-05-23 15:00:00 17 13 Noroeste 31 Noroeste 0 -- -- 77
2019-05-23 14:00:00 17.9 16 Noroeste 32 Oeste 0 -- -- 72
2019-05-23 13:00:00 17.9 9 Noroeste 26 Oeste 0 -- -- 67
2019-05-23 12:00:00 17.6 12 Noroeste 32 Oeste 0 -- -- 68
2019-05-23 11:00:00 17.2 8 Noroeste 22 Noroeste 0 -- -- 70
2019-05-23 10:00:00 15 11 Noroeste 32 Noroeste 0 -- -- 78
2019-05-23 09:00:00 14.7 17 Noroeste 38 Oeste 0 -- -- 86
2019-05-23 08:00:00 14 12 Noroeste 30 Noroeste 0 -- -- 89
2019-05-23 07:00:00 14.9 8 Oeste 25 Noroeste 0 -- -- 86
2019-05-23 06:00:00 15 6 Sudoeste 15 Sudoeste 0 -- -- 78
2019-05-23 05:00:00 14.4 10 Sudoeste 15 Sudoeste 0 -- -- 83
2019-05-23 04:00:00 13.6 3 Sur 13 Sur 0 -- -- 88
2019-05-23 03:00:00 13.3 10 Sur 13 Sur 0 -- -- 95
2019-05-23 02:00:00 13.2 5 Sur 7 Sur 0 -- -- 97
2019-05-23 01:00:00 13.8 2 Noroeste 8 Norte 0 -- -- 98
2019-05-23 00:00:00 14 4 Sudoeste 6 Sudoeste 0 -- -- 95
2019-05-22 23:00:00 14.8 3 Sur 4 Sur 0 -- -- 94
2019-05-22 22:00:00 16.1 0 Calma 7 Norte 0 -- -- 90
2019-05-22 21:00:00 18.5 3 Norte 6 Noroeste 0 -- -- 81
2019-05-22 20:00:00 20.1 5 Norte 9 Norte 0 -- -- 76
2019-05-22 19:00:00 20.6 5 Nordeste 13 Nordeste 0 -- -- 71
2019-05-22 18:00:00 22 8 Nordeste 22 Nordeste 0 -- -- 60
2019-05-22 17:00:00 22.3 10 Nordeste 19 Norte 0 -- -- 63
2019-05-22 16:00:00 22.1 12 Norte 23 Nordeste 0 -- -- 62
2019-05-22 15:00:00 22.1 11 Nordeste 19 Nordeste 0 -- -- 63
2019-05-22 14:00:00 22.1 7 Nordeste 17 Norte 0 -- -- 58
2019-05-22 13:00:00 21.1 8 Nordeste 16 Nordeste 0 -- -- 56
2019-05-22 12:00:00 19.4 6 Nordeste 16 Este 0 -- -- 63
2019-05-22 11:00:00 17.3 9 Este 15 Este 0 -- -- 70
2019-05-22 10:00:00 14 8 Sudeste 13 Sudeste 0 -- -- 79
2019-05-22 09:00:00 10.4 6 Sur 10 Sur 0 -- -- 99
2019-05-22 08:00:00 8.4 8 Sur 10 Sudoeste 0 -- -- 100
2019-05-22 07:00:00 7.6 4 Sudoeste 7 Sur 0 -- -- 100
2019-05-22 06:00:00 8.1 5 Sur 8 Sur 0 -- -- 100
2019-05-22 05:00:00 8.6 0 Calma 3 Sur 0 -- -- 100
2019-05-22 04:00:00 9.3 0 Calma 4 Sur 0 -- -- 99
2019-05-22 03:00:00 9.8 0 Calma 4 Sur 0 -- -- 98
2019-05-22 02:00:00 10.3 2 Sur 5 Este 0 -- -- 98
2019-05-22 01:00:00 10.4 4 Nordeste 8 Este 0 -- -- 96
2019-05-22 00:00:00 10.9 3 Este 9 Este 0 -- -- 94
2019-05-21 23:00:00 11.4 3 Nordeste 8 Nordeste 0 -- -- 93
2019-05-21 22:00:00 12.3 4 Nordeste 15 Nordeste 0 -- -- 89
2019-05-21 21:00:00 13.8 6 Nordeste 15 Nordeste 0 -- -- 84
2019-05-21 20:00:00 15.7 8 Nordeste 24 Norte 0 -- -- 75
2019-05-21 19:00:00 16.4 10 Norte 27 Nordeste 0 -- -- 72
2019-05-21 18:00:00 16.7 14 Nordeste 27 Nordeste 0 -- -- 75
2019-05-21 17:00:00 16.8 16 Norte 30 Nordeste 0 -- -- 75
2019-05-21 16:00:00 17.1 18 Norte 30 Norte 0 -- -- 75
2019-05-21 15:00:00 17.6 16 Norte 27 Norte 0 -- -- 73
2019-05-21 14:00:00 17.8 13 Norte 26 Nordeste 0 -- -- 72
2019-05-21 13:00:00 17.1 14 Norte 25 Nordeste 0 -- -- 74
2019-05-21 12:00:00 16.5 8 Nordeste 18 Nordeste 0 -- -- 76
2019-05-21 11:00:00 15.1 6 Nordeste 13 Nordeste 0 -- -- 79
2019-05-21 10:00:00 12.6 4 Sudeste 8 Sur 0 -- -- 88
2019-05-21 09:00:00 9.9 5 Sur 8 Sudeste 0 -- -- 96
2019-05-21 08:00:00 8.6 4 Sudoeste 12 Sudoeste 0 -- -- 100
2019-05-21 07:00:00 8.1 3 Sudoeste 6 Sudoeste 0 -- -- 100
2019-05-21 06:00:00 7.9 3 Sur 6 Sur 0 -- -- 100
2019-05-21 05:00:00 8.8 3 Sur 9 Sudoeste 0 -- -- 99
2019-05-21 04:00:00 8.8 3 Sur 5 Sudoeste 0 -- -- 99
2019-05-21 03:00:00 9.8 3 Sur 6 Sur 0 -- -- 98
2019-05-21 02:00:00 10.2 3 Sur 7 Este 0 -- -- 97
2019-05-21 01:00:00 10.8 3 Este 4 Este 0 -- -- 96
2019-05-21 00:00:00 11.2 3 Sudeste 5 Sudeste 0 -- -- 96
2019-05-20 23:00:00 11.3 4 Sudeste 6 Este 0 -- -- 94
2019-05-20 22:00:00 11.7 2 Nordeste 6 Nordeste 0 -- -- 91
2019-05-20 21:00:00 13 2 Nordeste 8 Norte 0 -- -- 86
2019-05-20 20:00:00 13.4 6 Norte 17 Norte 0 -- -- 84
2019-05-20 19:00:00 13.9 13 Norte 19 Norte 0 -- -- 81
2019-05-20 18:00:00 15.2 12 Norte 20 Norte 0 -- -- 72
2019-05-20 17:00:00 16 12 Norte 23 Norte 0 -- -- 66
2019-05-20 16:00:00 16.1 11 Norte 23 Norte 0 -- -- 74
2019-05-20 15:00:00 15.8 14 Norte 22 Noroeste 0 -- -- 73
2019-05-20 14:00:00 15.8 12 Norte 22 Noroeste 0 -- -- 72
2019-05-20 13:00:00 15.6 12 Norte 21 Norte 0 -- -- 70
2019-05-20 12:00:00 15.1 11 Noroeste 17 Norte 0 -- -- 71
2019-05-20 11:00:00 14.2 8 Norte 14 Norte 0 -- -- 78
2019-05-20 10:00:00 12.6 6 Sur 12 Sudoeste 0 -- -- 83
2019-05-20 09:00:00 10.1 9 Sudoeste 14 Sudoeste 0 -- -- 88
2019-05-20 08:00:00 7.5 7 Sur 10 Sur 0 -- -- 96
2019-05-20 07:00:00 8.4 6 Sudoeste 12 Oeste 0 -- -- 90
2019-05-20 06:00:00 8.4 6 Sudoeste 14 Sudoeste 0 -- -- 92
2019-05-20 05:00:00 8.7 7 Sudoeste 14 Sudoeste 0 -- -- 94
2019-05-20 04:00:00 8.7 7 Sudoeste 13 Sudoeste 0 -- -- 97
2019-05-20 03:00:00 8.7 7 Sudoeste 10 Sudoeste 0 -- -- 97
2019-05-20 02:00:00 9.6 6 Sudoeste 10 Sudoeste 0 -- -- 96
2019-05-20 01:00:00 10 5 Sudoeste 8 Sudoeste 0 -- -- 96
2019-05-20 00:00:00 10.4 5 Sudoeste 9 Oeste 0 -- -- 93
2019-05-19 23:00:00 10.6 4 Oeste 9 Oeste 0 -- -- 93
2019-05-19 22:00:00 11.3 4 Oeste 12 Oeste 0 -- -- 92
2019-05-19 21:00:00 12.1 8 Noroeste 22 Noroeste 0 -- -- 88
2019-05-19 20:00:00 14 6 Noroeste 22 Noroeste 0 -- -- 78
2019-05-19 19:00:00 14.1 10 Noroeste 30 Noroeste 0 -- -- 82
2019-05-19 18:00:00 14.3 14 Noroeste 32 Norte 0 -- -- 78
2019-05-19 17:00:00 13.7 17 Noroeste 38 Noroeste 0 -- -- 81
2019-05-19 16:00:00 14.2 22 Noroeste 39 Noroeste 0 -- -- 78
2019-05-19 15:00:00 14.6 18 Noroeste 37 Oeste 0 -- -- 67
2019-05-19 14:00:00 13.2 15 Noroeste 34 Noroeste 0 -- -- 70
2019-05-19 13:00:00 12.7 12 Oeste 39 Oeste 0 -- -- 71
2019-05-19 12:00:00 12.5 13 Noroeste 41 Oeste 0 -- -- 74
2019-05-19 11:00:00 11.5 12 Noroeste 28 Oeste 0 -- -- 78
2019-05-19 10:00:00 10.5 10 Oeste 29 Oeste 0.4 -- -- 83
2019-05-19 09:00:00 10.6 6 Oeste 25 Oeste 0 -- -- 81
2019-05-19 08:00:00 10.8 10 Oeste 36 Oeste 0 -- -- 79
2019-05-19 07:00:00 10.7 12 Oeste 31 Oeste 0 -- -- 80
2019-05-19 06:00:00 10.5 9 Oeste 25 Sudoeste 0 -- -- 83
2019-05-19 05:00:00 10.2 8 Oeste 31 Oeste 0.8 -- -- 89
2019-05-19 04:00:00 10.8 10 Oeste 31 Noroeste 0 -- -- 84
2019-05-19 03:00:00 10.9 9 Oeste 29 Oeste 0 -- -- 84
2019-05-19 02:00:00 10.8 12 Oeste 32 Noroeste 0.2 -- -- 86
2019-05-19 01:00:00 10.6 8 Oeste 30 Oeste 0.4 -- -- 87
2019-05-19 00:00:00 11.5 16 Noroeste 34 Oeste 0 -- -- 84
2019-05-18 23:00:00 11.4 13 Noroeste 40 Oeste 0 -- -- 84
2019-05-18 22:00:00 11.5 14 Noroeste 32 Sudoeste 0 -- -- 90
2019-05-18 21:00:00 11.6 13 Oeste 31 Noroeste 0 -- -- 86
2019-05-18 20:00:00 11.7 9 Oeste 32 Oeste 0 -- -- 86
2019-05-18 19:00:00 11.7 9 Oeste 27 Oeste 0 -- -- 89
2019-05-18 18:00:00 11.2 13 Noroeste 34 Noroeste 0.2 -- -- 86
2019-05-18 17:00:00 13.1 11 Oeste 31 Oeste 0 -- -- 75
2019-05-18 16:00:00 11.1 10 Oeste 31 Oeste 0 -- -- 82
2019-05-18 15:00:00 12.1 10 Noroeste 34 Oeste 0 -- -- 81
2019-05-18 14:00:00 11.9 12 Oeste 35 Sudoeste 0 -- -- 85
2019-05-18 13:00:00 10.2 10 Oeste 35 Sudoeste 0.4 -- -- 92
2019-05-18 12:00:00 9.6 8 Oeste 23 Sudoeste 1.8 -- -- 92
2019-05-18 11:00:00 9.6 11 Sudoeste 26 Oeste 1.2 -- -- 90
2019-05-18 10:00:00 9 6 Sudoeste 19 Sudoeste 1.6 -- -- 94
2019-05-18 09:00:00 8.8 9 Sudoeste 19 Oeste 0.8 -- -- 91
2019-05-18 08:00:00 8.5 9 Sudoeste 27 Oeste 2.6 -- -- 92
2019-05-18 07:00:00 8.3 5 Sudoeste 17 Sudoeste 0 -- -- 82
2019-05-18 06:00:00 8.8 6 Sur 16 Sur 0 -- -- 80
2019-05-18 05:00:00 8.3 7 Sur 18 Sudoeste 0 -- -- 81
2019-05-18 04:00:00 8.8 7 Sudoeste 22 Oeste 0 -- -- 76
2019-05-18 03:00:00 9.4 6 Sudoeste 27 Noroeste 0 -- -- 76
2019-05-18 02:00:00 9.2 7 Sudoeste 27 Oeste 0 -- -- 77
2019-05-18 01:00:00 9.4 6 Sudoeste 26 Oeste 0 -- -- 79
2019-05-18 00:00:00 9.7 8 Oeste 25 Sudoeste 0 -- -- 81
2019-05-17 23:00:00 9.2 7 Sudoeste 41 Noroeste 0.2 -- -- 88
2019-05-17 22:00:00 9.8 11 Oeste 33 Oeste 0 -- -- 86
2019-05-17 21:00:00 11.1 12 Noroeste 34 Noroeste 0 -- -- 87
2019-05-17 20:00:00 11.6 12 Oeste 37 Oeste 0 -- -- 88
2019-05-17 19:00:00 11.3 10 Oeste 31 Noroeste 0.8 -- -- 92
2019-05-17 18:00:00 10.3 6 Oeste 48 Oeste 1.8 -- -- 93
2019-05-17 17:00:00 12.2 16 Oeste 34 Oeste 2.4 -- -- 88
2019-05-17 16:00:00 12.8 15 Noroeste 42 Oeste 0.2 -- -- 84
2019-05-17 15:00:00 13.8 18 Oeste 46 Noroeste 0 -- -- 76
2019-05-17 14:00:00 12.5 7 Oeste 28 Oeste 0 -- -- 90
2019-05-17 13:00:00 11.6 9 Oeste 31 Oeste 0 -- -- 91
2019-05-17 12:00:00 11 10 Oeste 32 Sudoeste 0.4 -- -- 94
2019-05-17 11:00:00 10.1 10 Oeste 33 Oeste 1.2 -- -- 90
2019-05-17 10:00:00 10.4 12 Oeste 41 Oeste 0.2 -- -- 90
2019-05-17 09:00:00 9.7 14 Oeste 41 Oeste 0.4 -- -- 96
2019-05-17 08:00:00 9.5 16 Oeste 50 Noroeste 1.4 -- -- 98
2019-05-17 07:00:00 9.2 18 Oeste 60 Noroeste 5.8 -- -- 98
2019-05-17 06:00:00 10.4 26 Oeste 56 Noroeste 1.8 -- -- 96
2019-05-17 05:00:00 10.8 15 Oeste 46 Noroeste 0.4 -- -- 93
2019-05-17 04:00:00 10.9 8 Oeste 27 Oeste 0 -- -- 87
2019-05-17 03:00:00 10.8 7 Oeste 25 Oeste 0 -- -- 87
2019-05-17 02:00:00 10.9 6 Oeste 31 Oeste 0.2 -- -- 98
2019-05-17 01:00:00 11 12 Noroeste 27 Noroeste 1.8 -- -- 100
2019-05-17 00:00:00 10.9 8 Oeste 20 Oeste 4.2 -- -- 99
2019-05-16 23:00:00 11 3 Sur 17 Oeste 2.6 -- -- 98
2019-05-16 22:00:00 11.1 10 Noroeste 33 Oeste 0.2 -- -- 97
2019-05-16 21:00:00 11 8 Noroeste 26 Oeste 0.6 -- -- 98
2019-05-16 20:00:00 11.3 12 Noroeste 32 Noroeste 1.4 -- -- 97
2019-05-16 19:00:00 12.4 10 Noroeste 25 Sudoeste 1.6 -- -- 95
2019-05-16 18:00:00 13.1 5 Oeste 14 Oeste 0.8 -- -- 92
2019-05-16 17:00:00 13.5 5 Noroeste 15 Sudoeste 0.2 -- -- 89
2019-05-16 16:00:00 13.8 4 Oeste 21 Oeste 0 -- -- 86
2019-05-16 15:00:00 14.6 9 Oeste 22 Oeste 0 -- -- 80
2019-05-16 14:00:00 14.9 6 Noroeste 27 Oeste 0 -- -- 82
2019-05-16 13:00:00 13.9 13 Noroeste 34 Noroeste 0 -- -- 87
2019-05-16 12:00:00 14.4 15 Noroeste 33 Noroeste 0 -- -- 86
2019-05-16 11:00:00 13.9 12 Oeste 32 Oeste 0 -- -- 88
2019-05-16 10:00:00 13.1 12 Noroeste 30 Oeste 0 -- -- 92
2019-05-16 09:00:00 12.7 12 Noroeste 26 Oeste 0 -- -- 93
2019-05-16 08:00:00 12.4 5 Sudoeste 17 Sudoeste 0 -- -- 96
2019-05-16 07:00:00 12.2 4 Sudoeste 18 Oeste 0 -- -- 97
2019-05-16 06:00:00 11.9 8 Sudoeste 26 Sudoeste 0 -- -- 96
2019-05-16 05:00:00 11.7 4 Sur 15 Sudoeste 0 -- -- 95
2019-05-16 04:00:00 11 0 Calma 7 Sudoeste 0 -- -- 92
2019-05-16 03:00:00 10.8 4 Sudoeste 11 Sudoeste 0 -- -- 91
2019-05-16 02:00:00 11.8 6 Sudoeste 9 Sudoeste 0 -- -- 89
2019-05-16 01:00:00 11.6 0 Calma 5 Sudoeste 0 -- -- 87
2019-05-16 00:00:00 12.1 0 Calma 6 Sudeste 0 -- -- 83
2019-05-15 23:00:00 12.8 3 Nordeste 5 Nordeste 0 -- -- 81
2019-05-15 22:00:00 13.9 4 Nordeste 6 Nordeste 0 -- -- 78
2019-05-15 21:00:00 15.9 4 Norte 10 Nordeste 0 -- -- 74
2019-05-15 20:00:00 18 6 Nordeste 13 Nordeste 0 -- -- 67
2019-05-15 19:00:00 18.6 9 Nordeste 18 Norte 0 -- -- 64
2019-05-15 18:00:00 19.7 10 Nordeste 23 Nordeste 0 -- -- 59
2019-05-15 17:00:00 20.3 12 Nordeste 26 Nordeste 0 -- -- 54
2019-05-15 16:00:00 20.8 12 Nordeste 26 Nordeste 0 -- -- 56
2019-05-15 15:00:00 20.3 13 Nordeste 24 Nordeste 0 -- -- 55
2019-05-15 14:00:00 21 12 Nordeste 21 Nordeste 0 -- -- 58
2019-05-15 13:00:00 21.4 8 Nordeste 18 Nordeste 0 -- -- 62
2019-05-15 12:00:00 20.9 6 Nordeste 12 Este 0 -- -- 60
2019-05-15 11:00:00 19.4 4 Sudeste 8 Este 0 -- -- 61
2019-05-15 10:00:00 16.2 5 Sur 8 Sur 0 -- -- 75
2019-05-15 09:00:00 12.9 5 Sur 11 Sudoeste 0 -- -- 89
2019-05-15 08:00:00 10 6 Sudoeste 10 Sudoeste 0 -- -- 93
2019-05-15 07:00:00 8.5 6 Sur 10 Sudoeste 0 -- -- 95
2019-05-15 06:00:00 8.5 5 Sur 10 Sudoeste 0 -- -- 94
2019-05-15 05:00:00 9.8 7 Sudoeste 11 Sur 0 -- -- 96
2019-05-15 04:00:00 9.2 4 Sur 10 Sudoeste 0 -- -- 95
2019-05-15 03:00:00 10.1 0 Calma 8 Sudoeste 0 -- -- 92
2019-05-15 02:00:00 11 5 Sudoeste 11 Sudoeste 0 -- -- 87
2019-05-15 01:00:00 10.8 6 Sur 10 Sudoeste 0 -- -- 87
2019-05-15 00:00:00 11.6 3 Sudeste 5 Nordeste 0 -- -- 83
2019-05-14 23:00:00 12.1 4 Nordeste 6 Nordeste 0 -- -- 82
2019-05-14 22:00:00 13 3 Este 9 Nordeste 0 -- -- 79
2019-05-14 21:00:00 15.1 5 Nordeste 10 Nordeste 0 -- -- 73
2019-05-14 20:00:00 16.8 8 Norte 15 Nordeste 0 -- -- 69
2019-05-14 19:00:00 17 10 Nordeste 21 Nordeste 0 -- -- 68
2019-05-14 18:00:00 17.8 10 Norte 23 Nordeste 0 -- -- 67
2019-05-14 17:00:00 17.7 15 Nordeste 30 Nordeste 0 -- -- 64
2019-05-14 16:00:00 18.4 14 Nordeste 29 Nordeste 0 -- -- 65
2019-05-14 15:00:00 19 17 Nordeste 29 Nordeste 0 -- -- 62
2019-05-14 14:00:00 19.5 13 Nordeste 28 Nordeste 0 -- -- 61
2019-05-14 13:00:00 19.9 12 Nordeste 23 Nordeste 0 -- -- 64
2019-05-14 12:00:00 19.3 8 Nordeste 18 Nordeste 0 -- -- 61
2019-05-14 11:00:00 16.8 8 Nordeste 15 Este 0 -- -- 68
2019-05-14 10:00:00 13.8 4 Nordeste 10 Sudeste 0 -- -- 72
2019-05-14 09:00:00 10.4 5 Sudeste 7 Sudeste 0 -- -- 79
2019-05-14 08:00:00 8.2 2 Este 6 Sur 0 -- -- 86
2019-05-14 07:00:00 7 4 Sur 6 Sur 0 -- -- 90
2019-05-14 06:00:00 7.3 4 Sur 8 Sur 0 -- -- 87
2019-05-14 05:00:00 7.5 0 Calma 9 Sudeste 0 -- -- 87
2019-05-14 04:00:00 7.6 6 Sur 10 Sur 0 -- -- 90
2019-05-14 03:00:00 7.7 5 Sur 8 Sur 0 -- -- 87
2019-05-14 02:00:00 8.5 4 Sur 8 Sur 0 -- -- 84
2019-05-14 01:00:00 9.3 6 Sur 10 Sur 0 -- -- 81
2019-05-14 00:00:00 10.2 4 Sur 8 Este 0 -- -- 75
2019-05-13 23:00:00 11.1 4 Nordeste 15 Este 0 -- -- 71
2019-05-13 22:00:00 11.8 8 Este 15 Este 0 -- -- 72
2019-05-13 21:00:00 13.4 8 Nordeste 23 Nordeste 0 -- -- 67
2019-05-13 20:00:00 14.9 13 Nordeste 24 Norte 0 -- -- 62
2019-05-13 19:00:00 15.6 14 Nordeste 28 Nordeste 0 -- -- 63
2019-05-13 18:00:00 16.4 15 Este 32 Este 0 -- -- 60
2019-05-13 17:00:00 15.9 18 Nordeste 37 Nordeste 0 -- -- 66
2019-05-13 16:00:00 16.2 17 Nordeste 33 Nordeste 0 -- -- 63
2019-05-13 15:00:00 17.6 13 Nordeste 35 Norte 0 -- -- 54
2019-05-13 14:00:00 18.5 15 Nordeste 34 Este 0 -- -- 44
2019-05-13 13:00:00 17.4 17 Nordeste 31 Nordeste 0 -- -- 55
2019-05-13 12:00:00 17.6 11 Nordeste 28 Nordeste 0 -- -- 53
2019-05-13 11:00:00 16.3 12 Este 20 Nordeste 0 -- -- 62
2019-05-13 10:00:00 13.8 5 Este 12 Este 0 -- -- 76
2019-05-13 09:00:00 10.1 5 Sudeste 12 Sudeste 0 -- -- 91
2019-05-13 08:00:00 8.7 4 Sudeste 9 Sudeste 0 -- -- 93
2019-05-13 07:00:00 8 4 Sur 7 Sur 0 -- -- 95
2019-05-13 06:00:00 8.2 5 Sudeste 7 Sudeste 0 -- -- 94
2019-05-13 05:00:00 8.5 4 Sur 8 Sur 0 -- -- 93
2019-05-13 04:00:00 8.9 5 Sudeste 9 Sudeste 0 -- -- 91
2019-05-13 03:00:00 9.5 5 Sudeste 11 Este 0 -- -- 87
2019-05-13 02:00:00 10 5 Sur 15 Este 0 -- -- 84
2019-05-13 01:00:00 10.8 9 Sudeste 21 Este 0 -- -- 79
2019-05-13 00:00:00 11.1 9 Sudeste 23 Este 0 -- -- 77
2019-05-12 23:00:00 11.7 12 Este 24 Nordeste 0 -- -- 78
2019-05-12 22:00:00 11.8 9 Este 22 Este 0 -- -- 78
2019-05-12 21:00:00 13.2 12 Nordeste 30 Nordeste 0 -- -- 72
2019-05-12 20:00:00 15.3 13 Nordeste 37 Nordeste 0 -- -- 69
2019-05-12 19:00:00 16.1 17 Nordeste 36 Nordeste 0 -- -- 70
2019-05-12 18:00:00 17 15 Nordeste 37 Nordeste 0 -- -- 68
2019-05-12 17:00:00 17.4 17 Nordeste 38 Nordeste 0 -- -- 69
2019-05-12 16:00:00 17.8 18 Nordeste 34 Nordeste 0 -- -- 70
2019-05-12 15:00:00 17.7 14 Nordeste 34 Nordeste 0 -- -- 71
2019-05-12 14:00:00 16.7 18 Nordeste 31 Norte 0 -- -- 72
2019-05-12 13:00:00 17.4 12 Nordeste 24 Nordeste 0 -- -- 61
2019-05-12 12:00:00 16.9 9 Este 23 Este 0 -- -- 67
2019-05-12 11:00:00 14.6 10 Nordeste 21 Este 0 -- -- 75
2019-05-12 10:00:00 12.1 9 Este 15 Este 0 -- -- 85
2019-05-12 09:00:00 9.4 7 Sudeste 11 Sudeste 0 -- -- 99
2019-05-12 08:00:00 7.6 7 Sudeste 10 Sudeste 0 -- -- 100
2019-05-12 07:00:00 6.9 6 Sudeste 10 Este 0 -- -- 100
2019-05-12 06:00:00 7 3 Sur 11 Sudoeste 0 -- -- 100
2019-05-12 05:00:00 7.5 5 Sur 8 Sur 0 -- -- 99
2019-05-12 04:00:00 8.4 5 Sur 9 Sudeste 0 -- -- 100
2019-05-12 03:00:00 8.7 5 Sur 7 Sur 0 -- -- 99
2019-05-12 02:00:00 9.9 4 Sudeste 7 Sudeste 0 -- -- 99
2019-05-12 01:00:00 10.4 3 Sudeste 6 Este 0 -- -- 99
2019-05-12 00:00:00 10.3 2 Nordeste 6 Este 0 -- -- 98
2019-05-11 23:00:00 10.6 0 Calma 5 Nordeste 0 -- -- 97
2019-05-11 22:00:00 11.1 3 Norte 6 Norte 0 -- -- 94
2019-05-11 21:00:00 13 5 Norte 13 Norte 0 -- -- 87
2019-05-11 20:00:00 15.1 7 Norte 15 Norte 0 -- -- 79
2019-05-11 19:00:00 15.8 9 Norte 14 Noroeste 0 -- -- 73
2019-05-11 18:00:00 15.8 10 Norte 18 Norte 0 -- -- 74
2019-05-11 17:00:00 15.9 9 Norte 20 Noroeste 0 -- -- 68
2019-05-11 16:00:00 16.1 9 Norte 26 Norte 0 -- -- 78
2019-05-11 15:00:00 15.3 12 Noroeste 25 Noroeste 0 -- -- 80
2019-05-11 14:00:00 15.5 16 Norte 28 Noroeste 0 -- -- 80
2019-05-11 13:00:00 15.3 13 Noroeste 31 Noroeste 0 -- -- 82
2019-05-11 12:00:00 15.2 14 Norte 31 Noroeste 0 -- -- 81
2019-05-11 11:00:00 14 14 Noroeste 32 Oeste 0 -- -- 83
2019-05-11 10:00:00 13.1 10 Noroeste 26 Oeste 0 -- -- 88
2019-05-11 09:00:00 12.4 6 Noroeste 21 Oeste 0 -- -- 93
2019-05-11 08:00:00 12 11 Noroeste 30 Noroeste 0 -- -- 95
2019-05-11 07:00:00 12 10 Noroeste 22 Oeste 0 -- -- 97
2019-05-11 06:00:00 12 10 Noroeste 23 Oeste 0 -- -- 97
2019-05-11 05:00:00 12.1 11 Noroeste 28 Oeste 0 -- -- 98
2019-05-11 04:00:00 12.1 8 Noroeste 16 Noroeste 0.8 -- -- 98
2019-05-11 03:00:00 12.3 5 Oeste 15 Noroeste 0.6 -- -- 96
2019-05-11 02:00:00 12.7 3 Sudoeste 11 Sur 0 -- -- 92
2019-05-11 01:00:00 12.7 5 Oeste 15 Noroeste 0 -- -- 94
2019-05-11 00:00:00 12.8 6 Oeste 27 Oeste 0 -- -- 95
2019-05-10 23:00:00 13 10 Noroeste 36 Noroeste 0.2 -- -- 96
2019-05-10 22:00:00 13.4 11 Noroeste 27 Oeste 0 -- -- 97
2019-05-10 21:00:00 14 13 Noroeste 33 Norte 0.6 -- -- 95
2019-05-10 20:00:00 16.3 19 Noroeste 32 Norte 0 -- -- 83
2019-05-10 19:00:00 19.3 10 Norte 19 Norte 0 -- -- 77
2019-05-10 18:00:00 19.6 8 Sudeste 18 Sudeste 0 -- -- 76
2019-05-10 17:00:00 19.1 5 Sudeste 13 Sudeste 0 -- -- 78
2019-05-10 16:00:00 16.7 3 Nordeste 25 Norte 0 -- -- 85
2019-05-10 15:00:00 15.7 16 Norte 31 Nordeste 0 -- -- 89
2019-05-10 14:00:00 17.7 15 Norte 23 Norte 0 -- -- 81
2019-05-10 13:00:00 18 12 Nordeste 23 Nordeste 0 -- -- 82
2019-05-10 12:00:00 17.6 7 Nordeste 15 Nordeste 0 -- -- 86
2019-05-10 11:00:00 16.3 5 Nordeste 10 Este 0 -- -- 89
2019-05-10 10:00:00 15.5 0 Calma 8 Sudoeste 0 -- -- 95
2019-05-10 09:00:00 14.1 5 Sudoeste 8 Nordeste 0 -- -- 97
2019-05-10 08:00:00 14.2 5 Nordeste 13 Nordeste 0 -- -- 97
2019-05-10 07:00:00 13.7 0 Calma 10 Sur 0 -- -- 96
2019-05-10 06:00:00 13.7 0 Calma 16 Sudoeste 0 -- -- 95
2019-05-10 05:00:00 13.9 8 Sudoeste 15 Sudoeste 0 -- -- 96
2019-05-10 04:00:00 13.6 6 Sudoeste 13 Sudoeste 0 -- -- 97
2019-05-10 03:00:00 13.9 5 Sudoeste 9 Sudoeste 0 -- -- 97
2019-05-10 02:00:00 14.4 6 Sur 14 Sur 0 -- -- 96
2019-05-10 01:00:00 13.5 8 Sudoeste 16 Sudoeste 0.4 -- -- 99
2019-05-10 00:00:00 12.5 9 Sur 18 Sudoeste 2.2 -- -- 97
2019-05-09 23:00:00 11.6 9 Sudoeste 18 Sudoeste 1.6 -- -- 99
2019-05-09 22:00:00 10.7 12 Sur 18 Sudoeste 0.2 -- -- 98
2019-05-09 21:00:00 10.5 14 Sudoeste 19 Sur 0.4 -- -- 97
2019-05-09 20:00:00 10.6 8 Sudeste 24 Sudeste 1.2 -- -- 95
2019-05-09 19:00:00 10.9 7 Nordeste 21 Nordeste 0.6 -- -- 93
2019-05-09 18:00:00 11.4 5 Nordeste 18 Nordeste 0.4 -- -- 88
2019-05-09 17:00:00 12.4 5 Nordeste 21 Norte 1 -- -- 84
2019-05-09 16:00:00 14.5 14 Norte 29 Norte 0.2 -- -- 70
2019-05-09 15:00:00 16.3 15 Nordeste 26 Nordeste 0 -- -- 56
2019-05-09 14:00:00 16.9 9 Norte 20 Nordeste 0 -- -- 59
2019-05-09 13:00:00 17 8 Nordeste 19 Este 0 -- -- 59
2019-05-09 12:00:00 16.8 6 Nordeste 13 Nordeste 0 -- -- 58
2019-05-09 11:00:00 13.9 4 Nordeste 10 Este 0 -- -- 72
2019-05-09 10:00:00 12.5 0 Calma 8 Sudeste 0 -- -- 77
2019-05-09 09:00:00 11.3 5 Sur 12 Sudoeste 0 -- -- 83
2019-05-09 08:00:00 8.2 8 Sur 13 Sudoeste 0 -- -- 88
2019-05-09 07:00:00 9.5 7 Sudoeste 19 Oeste 0 -- -- 85
2019-05-09 06:00:00 11.4 8 Oeste 19 Oeste 0 -- -- 79
2019-05-09 05:00:00 9.6 5 Sudoeste 12 Sudoeste 0 -- -- 84
2019-05-09 04:00:00 9.9 5 Sudoeste 10 Oeste 0 -- -- 85
2019-05-09 03:00:00 11 4 Sudoeste 18 Oeste 0 -- -- 77
2019-05-09 02:00:00 12.7 6 Oeste 16 Oeste 0 -- -- 63
2019-05-09 01:00:00 11.2 9 Sudoeste 13 Sudoeste 0 -- -- 83
2019-05-09 00:00:00 12.6 2 Noroeste 6 Norte 0 -- -- 74
2019-05-08 23:00:00 12.9 3 Sudeste 4 Sudeste 0 -- -- 73
2019-05-08 22:00:00 12.9 2 Sur 9 Sur 0 -- -- 75
2019-05-08 21:00:00 14.8 4 Norte 14 Norte 0 -- -- 67
2019-05-08 20:00:00 15.9 6 Norte 12 Nordeste 0 -- -- 65
2019-05-08 19:00:00 16.5 5 Norte 11 Norte 0 -- -- 63
2019-05-08 18:00:00 18 8 Norte 17 Norte 0 -- -- 56
2019-05-08 17:00:00 17.4 7 Norte 23 Norte 0 -- -- 61
2019-05-08 16:00:00 17.7 14 Norte 26 Norte 0 -- -- 59
2019-05-08 15:00:00 17.4 16 Norte 27 Norte 0 -- -- 61
2019-05-08 14:00:00 18.3 6 Nordeste 15 Nordeste 0 -- -- 66
2019-05-08 13:00:00 16.7 3 Nordeste 15 Sur 0 -- -- 69
2019-05-08 12:00:00 14.6 8 Sudeste 15 Sudeste 0 -- -- 79
2019-05-08 11:00:00 13.1 7 Sur 10 Sudeste 0 -- -- 90
2019-05-08 10:00:00 12.8 6 Sur 8 Sur 0 -- -- 94
2019-05-08 09:00:00 12.4 4 Sur 20 Noroeste 0 -- -- 94
2019-05-08 08:00:00 12.3 10 Noroeste 28 Noroeste 0 -- -- 93
2019-05-08 07:00:00 13.3 17 Noroeste 49 Norte 0 -- -- 90
2019-05-08 06:00:00 15.5 4 Norte 9 Norte 0 -- -- 63
2019-05-08 05:00:00 16.5 4 Sudoeste 11 Sur 0 -- -- 57
2019-05-08 04:00:00 16.9 5 Sudeste 12 Noroeste 0 -- -- 64
2019-05-08 03:00:00 18.2 7 Noroeste 13 Noroeste 0 -- -- 56
2019-05-08 02:00:00 18 8 Oeste 17 Sur 0 -- -- 54
2019-05-08 01:00:00 16 6 Sur 12 Sudoeste 0 -- -- 70
2019-05-08 00:00:00 14.9 4 Sudoeste 8 Sudoeste 0 -- -- 78
2019-05-07 23:00:00 14.9 5 Sur 9 Sudoeste 0 -- -- 75
2019-05-07 22:00:00 15.6 5 Este 14 Este 0 -- -- 69
2019-05-07 21:00:00 16 4 Norte 12 Este 0 -- -- 69
2019-05-07 20:00:00 17.2 3 Nordeste 22 Sudeste 0 -- -- 66
2019-05-07 19:00:00 17.3 8 Este 16 Sudeste 0 -- -- 65
2019-05-07 18:00:00 18.4 7 Norte 17 Norte 0 -- -- 63
2019-05-07 17:00:00 18.8 3 Este 12 Nordeste 0 -- -- 60
2019-05-07 16:00:00 18.1 5 Nordeste 14 Nordeste 0 -- -- 59
2019-05-07 15:00:00 18.5 9 Este 14 Este 0 -- -- 54
2019-05-07 14:00:00 19.8 10 Norte 15 Norte 0 -- -- 63
2019-05-07 13:00:00 20.3 4 Sudeste 13 Este 0 -- -- 61
2019-05-07 12:00:00 18.3 5 Este 11 Este 0 -- -- 64
2019-05-07 11:00:00 15.4 5 Sur 8 Sur 0 -- -- 71
2019-05-07 10:00:00 13.7 6 Sur 10 Sur 0 -- -- 79
2019-05-07 09:00:00 11.5 6 Sur 7 Sur 0 -- -- 88
2019-05-07 08:00:00 11.1 2 Noroeste 13 Sudoeste 0 -- -- 85
2019-05-07 07:00:00 9.7 10 Sudoeste 13 Sudoeste 0 -- -- 89
2019-05-07 06:00:00 9.4 5 Sur 10 Sudoeste 0 -- -- 88
2019-05-07 05:00:00 9.8 6 Sudoeste 10 Sudoeste 0 -- -- 88
2019-05-07 04:00:00 10.7 3 Oeste 7 Sudoeste 0 -- -- 77
2019-05-07 03:00:00 10.6 5 Sudoeste 9 Sudoeste 0 -- -- 82
2019-05-07 02:00:00 10.9 4 Sur 11 Sudoeste 0 -- -- 76
2019-05-07 01:00:00 12.2 5 Sudoeste 16 Sudoeste 0 -- -- 71
2019-05-07 00:00:00 11.9 4 Sudoeste 10 Sudoeste 0 -- -- 74
2019-05-06 23:00:00 12.4 6 Sur 11 Sudoeste 0 -- -- 73
2019-05-06 22:00:00 12.7 5 Sudoeste 12 Oeste 0 -- -- 67
2019-05-06 21:00:00 13.7 4 Sudoeste 12 Norte 0 -- -- 62
2019-05-06 20:00:00 14.8 3 Oeste 24 Norte 0 -- -- 60
2019-05-06 19:00:00 16.2 12 Noroeste 28 Noroeste 0 -- -- 52
2019-05-06 18:00:00 17.8 14 Noroeste 23 Noroeste 0 -- -- 49
2019-05-06 17:00:00 19 8 Norte 15 Noroeste 0 -- -- 53
2019-05-06 16:00:00 19.2 8 Nordeste 18 Nordeste 0 -- -- 56
2019-05-06 15:00:00 19.4 9 Norte 17 Norte 0 -- -- 55
2019-05-06 14:00:00 18.8 9 Nordeste 18 Nordeste 0 -- -- 48
2019-05-06 13:00:00 18 7 Este 15 Este 0 -- -- 47
2019-05-06 12:00:00 16.4 5 Este 16 Sudeste 0 -- -- 51
2019-05-06 11:00:00 14.3 6 Este 15 Sudeste 0 -- -- 54
2019-05-06 10:00:00 11.5 8 Este 15 Este 0 -- -- 64
2019-05-06 09:00:00 7.9 5 Este 12 Este 0 -- -- 75
2019-05-06 08:00:00 5.2 4 Sur 10 Este 0 -- -- 83
2019-05-06 07:00:00 4.8 5 Sudeste 9 Sudeste 0 -- -- 81
2019-05-06 06:00:00 5.7 5 Sudeste 15 Este 0 -- -- 75
2019-05-06 05:00:00 6.7 9 Este 20 Nordeste 0 -- -- 72
2019-05-06 04:00:00 6.7 12 Este 23 Este 0 -- -- 74
2019-05-06 03:00:00 6.1 7 Sudeste 14 Este 0 -- -- 78
2019-05-06 02:00:00 6.4 7 Este 13 Este 0 -- -- 77
2019-05-06 01:00:00 6.5 8 Sudeste 13 Sudeste 0 -- -- 78
2019-05-06 00:00:00 7.1 8 Sudeste 13 Sudeste 0 -- -- 76
2019-05-05 23:00:00 7.6 7 Este 20 Este 0 -- -- 74
2019-05-05 22:00:00 8.3 9 Este 26 Este 0 -- -- 70
2019-05-05 21:00:00 9.5 10 Nordeste 27 Nordeste 0 -- -- 64
2019-05-05 20:00:00 11.1 17 Nordeste 34 Nordeste 0 -- -- 57
2019-05-05 19:00:00 12 19 Nordeste 37 Nordeste 0 -- -- 55
2019-05-05 18:00:00 12.8 18 Nordeste 39 Nordeste 0 -- -- 56
2019-05-05 17:00:00 13.2 21 Nordeste 38 Este 0 -- -- 56
2019-05-05 16:00:00 13.6 15 Nordeste 41 Nordeste 0 -- -- 57
2019-05-05 15:00:00 13.3 17 Nordeste 34 Nordeste 0 -- -- 56
2019-05-05 14:00:00 13.7 13 Nordeste 32 Nordeste 0 -- -- 48
2019-05-05 13:00:00 13.1 14 Este 31 Nordeste 0 -- -- 48
2019-05-05 12:00:00 12.1 17 Nordeste 35 Nordeste 0 -- -- 53
2019-05-05 11:00:00 11.3 16 Este 34 Este 0 -- -- 53
2019-05-05 10:00:00 10.4 17 Este 31 Este 0 -- -- 57
2019-05-05 09:00:00 8.4 13 Este 28 Este 0 -- -- 64
2019-05-05 08:00:00 6.9 7 Este 21 Este 0 -- -- 71
2019-05-05 07:00:00 6.5 8 Este 21 Nordeste 0 -- -- 75
2019-05-05 06:00:00 6.9 7 Este 18 Este 0 -- -- 78
2019-05-05 05:00:00 7.5 9 Este 24 Este 0 -- -- 79
2019-05-05 04:00:00 7.9 7 Nordeste 18 Nordeste 0 -- -- 79
2019-05-05 03:00:00 9 10 Este 28 Este 0 -- -- 76
2019-05-05 02:00:00 10 10 Nordeste 28 Nordeste 0 -- -- 78
2019-05-05 01:00:00 10.6 16 Nordeste 33 Nordeste 0 -- -- 79
2019-05-05 00:00:00 11.1 9 Nordeste 21 Norte 0 -- -- 78
2019-05-04 23:00:00 11.2 9 Norte 24 Norte 0 -- -- 74
2019-05-04 22:00:00 11.5 14 Norte 28 Norte 0 -- -- 78
2019-05-04 21:00:00 11.9 17 Norte 28 Norte 0 -- -- 81
2019-05-04 20:00:00 12.7 13 Norte 24 Norte 0 -- -- 84
2019-05-04 19:00:00 12.9 18 Norte 29 Norte 0 -- -- 85
2019-05-04 18:00:00 13.6 13 Noroeste 31 Noroeste 0 -- -- 84
2019-05-04 17:00:00 14.3 14 Noroeste 35 Noroeste 0 -- -- 79
2019-05-04 16:00:00 15.1 16 Norte 31 Noroeste 0 -- -- 74
2019-05-04 15:00:00 15 16 Norte 29 Noroeste 0 -- -- 73
2019-05-04 14:00:00 14.6 19 Norte 28 Norte 0 -- -- 74
2019-05-04 13:00:00 14.6 19 Norte 28 Noroeste 0 -- -- 73
2019-05-04 12:00:00 15.3 8 Sur 17 Sur 0 -- -- 70
2019-05-04 11:00:00 13.2 2 Oeste 9 Noroeste 0 -- -- 78
2019-05-04 10:00:00 10.9 5 Sur 12 Sur 0 -- -- 87
2019-05-04 09:00:00 8.8 8 Sur 15 Sudoeste 0 -- -- 92
2019-05-04 08:00:00 7.4 6 Sudoeste 12 Sudoeste 0 -- -- 97
2019-05-04 07:00:00 5.5 6 Sudoeste 13 Sudoeste 0 -- -- 99
2019-05-04 06:00:00 5.5 8 Sur 12 Sudoeste 0 -- -- 98
2019-05-04 05:00:00 6 8 Sur 12 Sudoeste 0 -- -- 96
2019-05-04 04:00:00 7.5 7 Sudoeste 13 Oeste 0 -- -- 97
2019-05-04 03:00:00 7.8 6 Sudoeste 14 Sudoeste 0 -- -- 95
2019-05-04 02:00:00 7.9 7 Sudoeste 11 Sudoeste 0 -- -- 97
2019-05-04 01:00:00 7.8 4 Sudoeste 6 Sudoeste 0 -- -- 96
2019-05-04 00:00:00 9 2 Sudoeste 5 Sudoeste 0 -- -- 94
2019-05-03 23:00:00 9 5 Sudoeste 8 Sudoeste 0 -- -- 93
2019-05-03 22:00:00 9.5 4 Noroeste 8 Norte 0 -- -- 89
2019-05-03 21:00:00 11 4 Noroeste 13 Norte 0 -- -- 83
2019-05-03 20:00:00 12.8 5 Noroeste 13 Norte 0 -- -- 77
2019-05-03 19:00:00 12.5 8 Norte 22 Norte 0 -- -- 76
2019-05-03 18:00:00 13.4 12 Norte 28 Noroeste 0 -- -- 77
2019-05-03 17:00:00 13.5 15 Noroeste 30 Noroeste 0 -- -- 79
2019-05-03 16:00:00 12.8 11 Noroeste 31 Noroeste 0 -- -- 83
2019-05-03 15:00:00 13.1 14 Noroeste 25 Noroeste 0 -- -- 81
2019-05-03 14:00:00 12.6 12 Noroeste 25 Norte 0 -- -- 84
2019-05-03 13:00:00 11.8 11 Noroeste 24 Norte 0 -- -- 91
2019-05-03 12:00:00 10.8 10 Noroeste 24 Norte 0 -- -- 95
2019-05-03 11:00:00 10 10 Norte 20 Norte 0.6 -- -- 98
2019-05-03 10:00:00 9.2 5 Oeste 26 Noroeste 1.2 -- -- 98
2019-05-03 09:00:00 9.5 10 Noroeste 23 Noroeste 0.6 -- -- 96
2019-05-03 08:00:00 9.5 10 Noroeste 23 Noroeste 0.8 -- -- 95
2019-05-03 07:00:00 9.9 6 Oeste 18 Noroeste 0 -- -- 90
2019-05-03 06:00:00 9.9 5 Oeste 10 Noroeste 0 -- -- 88
2019-05-03 05:00:00 9.4 3 Oeste 6 Sudoeste 0 -- -- 90
2019-05-03 04:00:00 9.4 3 Noroeste 8 Noroeste 0 -- -- 87
2019-05-03 03:00:00 9.3 2 Oeste 8 Noroeste 0 -- -- 87
2019-05-03 02:00:00 9.9 5 Noroeste 9 Noroeste 0 -- -- 87
2019-05-03 01:00:00 10.7 2 Noroeste 9 Norte 0 -- -- 87
2019-05-03 00:00:00 10.9 5 Norte 12 Norte 0 -- -- 88
2019-05-02 23:00:00 11 6 Noroeste 13 Noroeste 0 -- -- 87
2019-05-02 22:00:00 11.4 8 Norte 15 Norte 0 -- -- 85
2019-05-02 21:00:00 11.7 6 Norte 15 Noroeste 0 -- -- 85
2019-05-02 20:00:00 12.5 10 Norte 22 Norte 0 -- -- 81
2019-05-02 19:00:00 13.1 11 Norte 21 Noroeste 0 -- -- 78
2019-05-02 18:00:00 13.7 11 Norte 23 Noroeste 0 -- -- 75
2019-05-02 17:00:00 14.5 19 Norte 25 Noroeste 0 -- -- 70
2019-05-02 16:00:00 14.7 14 Norte 23 Noroeste 0 -- -- 71
2019-05-02 15:00:00 13.6 14 Noroeste 22 Noroeste 0 -- -- 75
2019-05-02 14:00:00 13.6 15 Norte 27 Noroeste 0 -- -- 79
2019-05-02 13:00:00 14.7 9 Noroeste 22 Noroeste 0 -- -- 71
2019-05-02 12:00:00 12.5 6 Norte 10 Norte 0 -- -- 73
2019-05-02 11:00:00 11.7 2 Norte 7 Sur 0 -- -- 80
2019-05-02 10:00:00 10.9 5 Sur 15 Sudoeste 0 -- -- 82
2019-05-02 09:00:00 9.7 8 Sudoeste 18 Sudoeste 0 -- -- 79
2019-05-02 08:00:00 8.4 7 Sudoeste 17 Sudoeste 0 -- -- 84
2019-05-02 07:00:00 8.3 9 Sudoeste 15 Sudoeste 0 -- -- 86
2019-05-02 06:00:00 8.5 7 Sudoeste 16 Sudoeste 0 -- -- 89
2019-05-02 05:00:00 8.4 6 Sudoeste 15 Sudoeste 0 -- -- 91
2019-05-02 04:00:00 8.1 7 Sudoeste 12 Sudoeste 0 -- -- 92
2019-05-02 03:00:00 8.5 5 Sudoeste 11 Oeste 0 -- -- 91
2019-05-02 02:00:00 9.6 5 Sudoeste 11 Oeste 0 -- -- 89
2019-05-02 01:00:00 9.9 6 Sudoeste 13 Oeste 0 -- -- 90
2019-05-02 00:00:00 10.5 4 Sudoeste 17 Sudoeste 0 -- -- 87
2019-05-01 23:00:00 11 6 Noroeste 16 Oeste 0 -- -- 85
2019-05-01 22:00:00 11.4 5 Noroeste 17 Noroeste 0 -- -- 85
2019-05-01 21:00:00 11.8 10 Noroeste 23 Norte 0 -- -- 83
2019-05-01 20:00:00 13 11 Noroeste 27 Noroeste 0 -- -- 81
2019-05-01 19:00:00 13 13 Noroeste 26 Noroeste 0 -- -- 84
2019-05-01 18:00:00 13.4 12 Noroeste 31 Noroeste 0 -- -- 83
2019-05-01 17:00:00 14 9 Noroeste 31 Noroeste 0 -- -- 79
2019-05-01 16:00:00 14.5 13 Noroeste 28 Noroeste 0 -- -- 80
2019-05-01 15:00:00 14 12 Noroeste 26 Noroeste 0 -- -- 80
2019-05-01 14:00:00 14.2 12 Noroeste 27 Oeste 0 -- -- 81
2019-05-01 13:00:00 15 8 Noroeste 25 Oeste 0 -- -- 81
2019-05-01 12:00:00 14.1 10 Noroeste 24 Noroeste 0 -- -- 83
2019-05-01 11:00:00 13.9 7 Noroeste 15 Noroeste 0 -- -- 83
2019-05-01 10:00:00 12 5 Noroeste 12 Sur 0 -- -- 98
2019-05-01 09:00:00 9.9 7 Sudoeste 12 Sudoeste 0 -- -- 100
2019-05-01 08:00:00 8.5 3 Sudoeste 6 Sudoeste 0 -- -- 100
2019-05-01 07:00:00 9 2 Sudoeste 4 Sudoeste 0 -- -- 99
2019-05-01 06:00:00 8.9 0 Calma 8 Oeste 0 -- -- 98
2019-05-01 05:00:00 8.7 5 Sudoeste 11 Sudoeste 0 -- -- 97
2019-05-01 04:00:00 9.1 5 Sudoeste 11 Sudoeste 0 -- -- 95
2019-05-01 03:00:00 9.2 3 Sudoeste 6 Sudoeste 0 -- -- 92
2019-05-01 02:00:00 9.7 0 Calma 3 Noroeste 0 -- -- 90
2019-05-01 01:00:00 10.4 3 Norte 5 Noroeste 0 -- -- 88
2019-05-01 00:00:00 10.8 0 Calma 2 Noroeste 0 -- -- 90
2019-04-30 23:00:00 11.1 0 Calma 6 Nordeste 0 -- -- 88
2019-04-30 22:00:00 11.9 4 Norte 10 Norte 0 -- -- 83
2019-04-30 21:00:00 13.6 5 Norte 12 Nordeste 0 -- -- 74
2019-04-30 20:00:00 15.4 7 Norte 19 Norte 0 -- -- 70
2019-04-30 19:00:00 16.2 12 Norte 22 Nordeste 0 -- -- 65
2019-04-30 18:00:00 17.1 11 Norte 20 Nordeste 0 -- -- 65
2019-04-30 17:00:00 17.3 12 Norte 23 Norte 0 -- -- 70
2019-04-30 16:00:00 16.9 14 Norte 22 Noroeste 0 -- -- 80
2019-04-30 15:00:00 17 14 Norte 24 Noroeste 0 -- -- 79
2019-04-30 14:00:00 16.8 13 Norte 22 Noroeste 0 -- -- 76
2019-04-30 13:00:00 16.7 12 Norte 18 Norte 0 -- -- 80
2019-04-30 12:00:00 16.5 5 Norte 10 Norte 0 -- -- 81
2019-04-30 11:00:00 14.5 7 Norte 13 Norte 0 -- -- 88
2019-04-30 10:00:00 12.4 0 Calma 12 Sudoeste 0 -- -- 94
2019-04-30 09:00:00 10 6 Sur 13 Sudoeste 0 -- -- 100
2019-04-30 08:00:00 7.9 5 Sudoeste 9 Sudoeste 0 -- -- 100
2019-04-30 07:00:00 6.6 4 Sur 8 Sudoeste 0 -- -- 100
2019-04-30 06:00:00 7.7 4 Sur 10 Sudoeste 0 -- -- 100
2019-04-30 05:00:00 8.3 8 Sudoeste 11 Sudoeste 0 -- -- 99
2019-04-30 04:00:00 8.8 3 Sur 9 Sudoeste 0 -- -- 98
2019-04-30 03:00:00 9.7 3 Sur 6 Sudeste 0 -- -- 99
2019-04-30 02:00:00 9.9 3 Sur 5 Sudeste 0 -- -- 99
2019-04-30 01:00:00 10 3 Sur 6 Este 0 -- -- 98
2019-04-30 00:00:00 10.2 4 Este 8 Este 0 -- -- 96
2019-04-29 23:00:00 10.7 4 Este 10 Nordeste 0 -- -- 94
2019-04-29 22:00:00 11.3 5 Nordeste 13 Nordeste 0 -- -- 91
2019-04-29 21:00:00 12.6 5 Nordeste 15 Nordeste 0 -- -- 85
2019-04-29 20:00:00 14.8 6 Nordeste 23 Norte 0 -- -- 76
2019-04-29 19:00:00 15.4 9 Nordeste 21 Nordeste 0 -- -- 73
2019-04-29 18:00:00 16.5 11 Norte 23 Nordeste 0 -- -- 69
2019-04-29 17:00:00 16.7 13 Nordeste 22 Nordeste 0 -- -- 71
2019-04-29 16:00:00 17.3 11 Nordeste 23 Norte 0 -- -- 73
2019-04-29 15:00:00 17.1 12 Nordeste 25 Norte 0 -- -- 75
2019-04-29 14:00:00 17.5 11 Norte 26 Nordeste 0 -- -- 72
2019-04-29 13:00:00 17.2 9 Nordeste 20 Nordeste 0 -- -- 69
2019-04-29 12:00:00 16.5 8 Nordeste 18 Nordeste 0 -- -- 66
2019-04-29 11:00:00 14.6 5 Este 15 Sudeste 0 -- -- 73
2019-04-29 10:00:00 12.2 6 Este 12 Este 0 -- -- 83
2019-04-29 09:00:00 9 2 Sudeste 6 Sudeste 0 -- -- 96
2019-04-29 08:00:00 7.6 3 Sudeste 12 Este 0 -- -- 98
2019-04-29 07:00:00 7.1 4 Sur 8 Sudeste 0 -- -- 98
2019-04-29 06:00:00 7.3 5 Sudeste 8 Sudeste 0 -- -- 97
2019-04-29 05:00:00 7.7 3 Este 10 Sudeste 0 -- -- 96
2019-04-29 04:00:00 7.7 4 Sudeste 10 Sudeste 0 -- -- 95
2019-04-29 03:00:00 8 4 Sudeste 12 Sudeste 0 -- -- 93
2019-04-29 02:00:00 8.7 8 Sudeste 12 Sudeste 0 -- -- 92
2019-04-29 01:00:00 8.8 6 Este 14 Este 0 -- -- 92
2019-04-29 00:00:00 9.1 5 Este 13 Este 0 -- -- 89
2019-04-28 23:00:00 9.6 5 Este 12 Nordeste 0 -- -- 87
2019-04-28 22:00:00 10.3 6 Este 15 Nordeste 0 -- -- 83
2019-04-28 21:00:00 11.6 7 Nordeste 21 Nordeste 0 -- -- 77
2019-04-28 20:00:00 13.5 9 Nordeste 25 Nordeste 0 -- -- 71
2019-04-28 19:00:00 14.5 9 Nordeste 22 Nordeste 0 -- -- 69
2019-04-28 18:00:00 15.1 11 Nordeste 24 Norte 0 -- -- 66
2019-04-28 17:00:00 15.1 13 Norte 27 Norte 0 -- -- 70
2019-04-28 16:00:00 15.2 15 Norte 34 Nordeste 0 -- -- 71
2019-04-28 15:00:00 15.4 17 Nordeste 27 Norte 0 -- -- 71
2019-04-28 14:00:00 15.3 15 Norte 27 Nordeste 0 -- -- 71
2019-04-28 13:00:00 15.5 11 Nordeste 21 Nordeste 0 -- -- 71
2019-04-28 12:00:00 15.2 7 Este 15 Este 0 -- -- 70
2019-04-28 11:00:00 13.9 7 Este 15 Sudeste 0 -- -- 73
2019-04-28 10:00:00 12.7 6 Sudeste 12 Sudeste 0 -- -- 86
2019-04-28 09:00:00 10.2 4 Sudeste 6 Sudeste 0 -- -- 98
2019-04-28 08:00:00 8.6 2 Este 6 Sudeste 0 -- -- 98
2019-04-28 07:00:00 8.8 2 Sudeste 5 Sur 0 -- -- 96
2019-04-28 06:00:00 9.3 0 Calma 4 Sudoeste 0 -- -- 95
2019-04-28 05:00:00 9.8 3 Sudoeste 6 Sur 0 -- -- 94
2019-04-28 04:00:00 10.1 4 Sudoeste 7 Sur 0 -- -- 92
2019-04-28 03:00:00 10.5 0 Calma 6 Sudoeste 0 -- -- 92
2019-04-28 02:00:00 10.6 4 Sudoeste 9 Sudoeste 0 -- -- 91
2019-04-28 01:00:00 10.6 4 Sudoeste 9 Sudoeste 0 -- -- 95
2019-04-28 00:00:00 10.8 5 Sudoeste 10 Sudoeste 0 -- -- 95
2019-04-27 23:00:00 11 0 Calma 9 Noroeste 0 -- -- 93
2019-04-27 22:00:00 11.4 2 Oeste 4 Oeste 0 -- -- 89
2019-04-27 21:00:00 11.7 2 Noroeste 5 Noroeste 0 -- -- 87
2019-04-27 20:00:00 12 2 Oeste 8 Noroeste 0 -- -- 86
2019-04-27 19:00:00 12.2 5 Noroeste 12 Oeste 0 -- -- 84
2019-04-27 18:00:00 12.8 5 Noroeste 16 Noroeste 0 -- -- 80
2019-04-27 17:00:00 12.9 9 Noroeste 19 Norte 0 -- -- 85
2019-04-27 16:00:00 13.3 8 Norte 22 Noroeste 0 -- -- 83
2019-04-27 15:00:00 13.6 11 Noroeste 28 Noroeste 0 -- -- 90
2019-04-27 14:00:00 12.7 12 Noroeste 22 Norte 0.2 -- -- 95
2019-04-27 13:00:00 12.1 8 Noroeste 24 Oeste 0.4 -- -- 93
2019-04-27 12:00:00 13.1 6 Noroeste 16 Oeste 0 -- -- 89
2019-04-27 11:00:00 12.9 4 Sudoeste 13 Oeste 0 -- -- 86
2019-04-27 10:00:00 11.2 8 Sudoeste 13 Sudoeste 0 -- -- 88
2019-04-27 09:00:00 9.7 8 Sudoeste 13 Sur 0 -- -- 91
2019-04-27 08:00:00 9.9 5 Sudoeste 13 Oeste 0 -- -- 88
2019-04-27 07:00:00 9.8 6 Sudoeste 12 Sudoeste 0 -- -- 83
2019-04-27 06:00:00 9.5 7 Sudoeste 14 Sudoeste 0 -- -- 85
2019-04-27 05:00:00 9.3 8 Sudoeste 14 Sudoeste 0 -- -- 85
2019-04-27 04:00:00 9.1 8 Sudoeste 14 Oeste 0 -- -- 87
2019-04-27 03:00:00 9 8 Sudoeste 14 Sudoeste 0 -- -- 86
2019-04-27 02:00:00 9.4 7 Sudoeste 12 Sudoeste 0 -- -- 86
2019-04-27 01:00:00 9.8 5 Sudoeste 10 Sudoeste 0 -- -- 83
2019-04-27 00:00:00 10.3 5 Sudoeste 10 Sudoeste 0 -- -- 82
2019-04-26 23:00:00 10.9 5 Sudoeste 7 Sudoeste 0 -- -- 82
2019-04-26 22:00:00 11.1 4 Sudoeste 9 Oeste 0 -- -- 79
2019-04-26 21:00:00 11.4 4 Sudoeste 16 Noroeste 0 -- -- 77
2019-04-26 20:00:00 11.9 6 Noroeste 19 Noroeste 0 -- -- 75
2019-04-26 19:00:00 12.3 6 Noroeste 26 Noroeste 0 -- -- 73
2019-04-26 18:00:00 12.5 14 Noroeste 33 Noroeste 0 -- -- 73
2019-04-26 17:00:00 12.6 18 Noroeste 40 Norte 0 -- -- 68
2019-04-26 16:00:00 13.5 13 Noroeste 40 Noroeste 0 -- -- 68
2019-04-26 15:00:00 13.4 18 Noroeste 41 Noroeste 0 -- -- 67
2019-04-26 14:00:00 13.7 23 Noroeste 42 Noroeste 0 -- -- 65
2019-04-26 13:00:00 14.5 19 Norte 39 Noroeste 0 -- -- 68
2019-04-26 12:00:00 14 14 Noroeste 39 Noroeste 0 -- -- 70
2019-04-26 11:00:00 13.2 17 Noroeste 42 Noroeste 0 -- -- 74
2019-04-26 10:00:00 12.1 11 Noroeste 30 Noroeste 0 -- -- 82
2019-04-26 09:00:00 11.3 8 Oeste 27 Oeste 0 -- -- 76
2019-04-26 08:00:00 10.6 15 Oeste 33 Oeste 0.2 -- -- 82
2019-04-26 07:00:00 11 7 Oeste 39 Oeste 0 -- -- 77
2019-04-26 06:00:00 11.2 13 Oeste 36 Noroeste 0 -- -- 80
2019-04-26 05:00:00 10.9 7 Oeste 26 Oeste 0 -- -- 82
2019-04-26 04:00:00 10.1 7 Sudoeste 22 Oeste 0.4 -- -- 88
2019-04-26 03:00:00 8.9 8 Sudoeste 12 Sudoeste 0.2 -- -- 94
2019-04-26 02:00:00 9.4 7 Sudoeste 20 Oeste 0.6 -- -- 87
2019-04-26 01:00:00 8.6 6 Sudoeste 12 Sudoeste 0 -- -- 94
2019-04-26 00:00:00 8.4 6 Sudoeste 21 Oeste 0.2 -- -- 93